sensor_id;sensor_type;location;lat;lon;timestamp;P1;durP1;ratioP1;P2;durP2;ratioP2
20026;SDS011;10174;42.688;23.344;2023-03-11T00:00:59;37.75;;;22.02;;
20026;SDS011;10174;42.688;23.344;2023-03-11T00:03:24;37.38;;;23.05;;
20026;SDS011;10174;42.688;23.344;2023-03-11T00:05:52;22.88;;;14.18;;
20026;SDS011;10174;42.688;23.344;2023-03-11T00:08:19;13.07;;;8.27;;
20026;SDS011;10174;42.688;23.344;2023-03-11T00:10:47;7.85;;;4.85;;
20026;SDS011;10174;42.688;23.344;2023-03-11T00:13:15;7.88;;;3.20;;
20026;SDS011;10174;42.688;23.344;2023-03-11T00:15:42;5.05;;;2.55;;
20026;SDS011;10174;42.688;23.344;2023-03-11T00:18:09;3.25;;;2.13;;
20026;SDS011;10174;42.688;23.344;2023-03-11T00:20:35;2.95;;;1.50;;
20026;SDS011;10174;42.688;23.344;2023-03-11T00:23:03;5.05;;;1.90;;
20026;SDS011;10174;42.688;23.344;2023-03-11T00:25:29;2.33;;;1.38;;
20026;SDS011;10174;42.688;23.344;2023-03-11T00:27:56;2.53;;;1.23;;
20026;SDS011;10174;42.688;23.344;2023-03-11T00:30:22;4.28;;;1.13;;
20026;SDS011;10174;42.688;23.344;2023-03-11T00:32:48;4.13;;;1.70;;
20026;SDS011;10174;42.688;23.344;2023-03-11T00:35:16;3.33;;;1.20;;
20026;SDS011;10174;42.688;23.344;2023-03-11T00:37:44;4.57;;;1.10;;
20026;SDS011;10174;42.688;23.344;2023-03-11T00:40:15;1.38;;;1.00;;
20026;SDS011;10174;42.688;23.344;2023-03-11T00:42:43;3.42;;;1.00;;
20026;SDS011;10174;42.688;23.344;2023-03-11T00:45:09;4.00;;;1.58;;
20026;SDS011;10174;42.688;23.344;2023-03-11T00:47:35;7.18;;;1.80;;
20026;SDS011;10174;42.688;23.344;2023-03-11T00:50:01;4.53;;;1.45;;
20026;SDS011;10174;42.688;23.344;2023-03-11T00:52:26;3.50;;;1.20;;
20026;SDS011;10174;42.688;23.344;2023-03-11T00:54:53;3.97;;;1.27;;
20026;SDS011;10174;42.688;23.344;2023-03-11T00:57:18;3.28;;;1.08;;
20026;SDS011;10174;42.688;23.344;2023-03-11T00:59:44;3.47;;;1.10;;
20026;SDS011;10174;42.688;23.344;2023-03-11T01:02:09;10.65;;;1.60;;
20026;SDS011;10174;42.688;23.344;2023-03-11T01:04:34;7.65;;;1.20;;
20026;SDS011;10174;42.688;23.344;2023-03-11T01:07:00;3.35;;;1.38;;
20026;SDS011;10174;42.688;23.344;2023-03-11T01:09:25;3.63;;;1.40;;
20026;SDS011;10174;42.688;23.344;2023-03-11T01:11:51;11.32;;;2.15;;
20026;SDS011;10174;42.688;23.344;2023-03-11T01:14:17;3.83;;;1.83;;
20026;SDS011;10174;42.688;23.344;2023-03-11T01:16:42;17.30;;;3.10;;
20026;SDS011;10174;42.688;23.344;2023-03-11T01:19:07;12.38;;;2.50;;
20026;SDS011;10174;42.688;23.344;2023-03-11T01:21:33;8.32;;;2.40;;
20026;SDS011;10174;42.688;23.344;2023-03-11T01:23:58;9.85;;;2.20;;
20026;SDS011;10174;42.688;23.344;2023-03-11T01:26:24;5.40;;;1.75;;
20026;SDS011;10174;42.688;23.344;2023-03-11T01:28:49;7.85;;;1.73;;
20026;SDS011;10174;42.688;23.344;2023-03-11T01:31:14;2.28;;;1.42;;
20026;SDS011;10174;42.688;23.344;2023-03-11T01:33:40;4.60;;;1.80;;
20026;SDS011;10174;42.688;23.344;2023-03-11T01:36:05;2.33;;;1.52;;
20026;SDS011;10174;42.688;23.344;2023-03-11T01:38:31;4.22;;;1.60;;
20026;SDS011;10174;42.688;23.344;2023-03-11T01:40:56;3.85;;;1.55;;
20026;SDS011;10174;42.688;23.344;2023-03-11T01:48:37;7.82;;;2.72;;
20026;SDS011;10174;42.688;23.344;2023-03-11T01:51:03;4.32;;;2.00;;
20026;SDS011;10174;42.688;23.344;2023-03-11T01:53:31;4.22;;;2.75;;
20026;SDS011;10174;42.688;23.344;2023-03-11T01:55:57;7.97;;;3.50;;
20026;SDS011;10174;42.688;23.344;2023-03-11T01:58:24;8.65;;;4.45;;
20026;SDS011;10174;42.688;23.344;2023-03-11T02:00:52;8.68;;;5.00;;
20026;SDS011;10174;42.688;23.344;2023-03-11T02:03:30;10.90;;;5.93;;
20026;SDS011;10174;42.688;23.344;2023-03-11T02:05:58;14.07;;;5.60;;
20026;SDS011;10174;42.688;23.344;2023-03-11T02:08:27;7.55;;;5.20;;
20026;SDS011;10174;42.688;23.344;2023-03-11T02:10:54;8.63;;;5.32;;
20026;SDS011;10174;42.688;23.344;2023-03-11T02:13:21;12.57;;;5.60;;
20026;SDS011;10174;42.688;23.344;2023-03-11T02:15:47;8.50;;;5.28;;
20026;SDS011;10174;42.688;23.344;2023-03-11T02:18:13;10.90;;;5.13;;
20026;SDS011;10174;42.688;23.344;2023-03-11T02:23:24;12.07;;;5.35;;
20026;SDS011;10174;42.688;23.344;2023-03-11T02:28:23;11.88;;;6.05;;
20026;SDS011;10174;42.688;23.344;2023-03-11T02:30:51;15.30;;;6.78;;
20026;SDS011;10174;42.688;23.344;2023-03-11T02:33:17;11.15;;;6.65;;
20026;SDS011;10174;42.688;23.344;2023-03-11T02:35:43;6.75;;;4.43;;
20026;SDS011;10174;42.688;23.344;2023-03-11T02:38:09;7.97;;;4.80;;
20026;SDS011;10174;42.688;23.344;2023-03-11T02:43:15;6.35;;;3.95;;
20026;SDS011;10174;42.688;23.344;2023-03-11T02:45:43;3.47;;;2.40;;
20026;SDS011;10174;42.688;23.344;2023-03-11T02:48:11;5.22;;;3.08;;
20026;SDS011;10174;42.688;23.344;2023-03-11T02:50:38;4.55;;;2.90;;
20026;SDS011;10174;42.688;23.344;2023-03-11T02:53:05;7.68;;;2.83;;
20026;SDS011;10174;42.688;23.344;2023-03-11T02:55:31;5.78;;;3.42;;
20026;SDS011;10174;42.688;23.344;2023-03-11T02:57:56;6.35;;;2.47;;
20026;SDS011;10174;42.688;23.344;2023-03-11T03:00:22;11.80;;;4.07;;
20026;SDS011;10174;42.688;23.344;2023-03-11T03:02:47;7.50;;;3.20;;
20026;SDS011;10174;42.688;23.344;2023-03-11T03:05:16;4.38;;;2.47;;
20026;SDS011;10174;42.688;23.344;2023-03-11T03:07:44;3.40;;;1.90;;
20026;SDS011;10174;42.688;23.344;2023-03-11T03:10:11;4.68;;;1.83;;
20026;SDS011;10174;42.688;23.344;2023-03-11T03:12:37;3.20;;;2.03;;
20026;SDS011;10174;42.688;23.344;2023-03-11T03:15:03;10.10;;;3.90;;
20026;SDS011;10174;42.688;23.344;2023-03-11T03:17:29;7.35;;;5.07;;
20026;SDS011;10174;42.688;23.344;2023-03-11T03:19:54;8.93;;;5.53;;
20026;SDS011;10174;42.688;23.344;2023-03-11T03:22:19;13.32;;;6.28;;
20026;SDS011;10174;42.688;23.344;2023-03-11T03:24:45;9.90;;;6.38;;
20026;SDS011;10174;42.688;23.344;2023-03-11T03:27:10;9.57;;;6.18;;
20026;SDS011;10174;42.688;23.344;2023-03-11T03:29:36;14.55;;;7.25;;
20026;SDS011;10174;42.688;23.344;2023-03-11T03:32:01;11.35;;;6.95;;
20026;SDS011;10174;42.688;23.344;2023-03-11T03:34:26;13.18;;;7.43;;
20026;SDS011;10174;42.688;23.344;2023-03-11T03:36:52;15.10;;;8.70;;
20026;SDS011;10174;42.688;23.344;2023-03-11T03:39:17;16.17;;;8.20;;
20026;SDS011;10174;42.688;23.344;2023-03-11T03:41:44;12.85;;;7.93;;
20026;SDS011;10174;42.688;23.344;2023-03-11T03:44:09;13.50;;;8.15;;
20026;SDS011;10174;42.688;23.344;2023-03-11T03:46:35;13.15;;;7.80;;
20026;SDS011;10174;42.688;23.344;2023-03-11T03:49:02;14.25;;;7.93;;
20026;SDS011;10174;42.688;23.344;2023-03-11T03:51:28;16.58;;;8.20;;
20026;SDS011;10174;42.688;23.344;2023-03-11T03:53:53;14.57;;;7.82;;
20026;SDS011;10174;42.688;23.344;2023-03-11T03:56:19;13.98;;;7.60;;
20026;SDS011;10174;42.688;23.344;2023-03-11T03:58:44;13.32;;;8.73;;
20026;SDS011;10174;42.688;23.344;2023-03-11T04:01:11;13.52;;;8.70;;
20026;SDS011;10174;42.688;23.344;2023-03-11T04:03:38;13.93;;;8.30;;
20026;SDS011;10174;42.688;23.344;2023-03-11T04:06:08;13.82;;;7.97;;
20026;SDS011;10174;42.688;23.344;2023-03-11T04:08:36;10.98;;;7.28;;
20026;SDS011;10174;42.688;23.344;2023-03-11T04:11:01;11.50;;;6.75;;
20026;SDS011;10174;42.688;23.344;2023-03-11T04:13:27;12.45;;;7.55;;
20026;SDS011;10174;42.688;23.344;2023-03-11T04:15:52;8.57;;;6.15;;
20026;SDS011;10174;42.688;23.344;2023-03-11T04:18:18;19.92;;;10.88;;
20026;SDS011;10174;42.688;23.344;2023-03-11T04:20:43;13.02;;;7.13;;
20026;SDS011;10174;42.688;23.344;2023-03-11T04:23:09;14.90;;;6.75;;
20026;SDS011;10174;42.688;23.344;2023-03-11T04:25:34;9.48;;;5.78;;
20026;SDS011;10174;42.688;23.344;2023-03-11T04:28:00;3.97;;;2.67;;
20026;SDS011;10174;42.688;23.344;2023-03-11T04:30:25;4.88;;;2.10;;
20026;SDS011;10174;42.688;23.344;2023-03-11T04:32:50;5.65;;;2.83;;
20026;SDS011;10174;42.688;23.344;2023-03-11T04:35:16;2.90;;;1.65;;
20026;SDS011;10174;42.688;23.344;2023-03-11T04:37:41;2.42;;;1.20;;
20026;SDS011;10174;42.688;23.344;2023-03-11T04:40:07;0.63;;;0.60;;
20026;SDS011;10174;42.688;23.344;2023-03-11T04:42:34;2.78;;;0.70;;
20026;SDS011;10174;42.688;23.344;2023-03-11T04:45:00;0.55;;;0.40;;
20026;SDS011;10174;42.688;23.344;2023-03-11T04:47:25;1.27;;;0.60;;
20026;SDS011;10174;42.688;23.344;2023-03-11T04:49:50;0.77;;;0.50;;
20026;SDS011;10174;42.688;23.344;2023-03-11T04:52:16;2.78;;;0.60;;
20026;SDS011;10174;42.688;23.344;2023-03-11T04:54:41;0.82;;;0.63;;
20026;SDS011;10174;42.688;23.344;2023-03-11T04:57:07;1.50;;;0.60;;
20026;SDS011;10174;42.688;23.344;2023-03-11T04:59:32;1.00;;;0.60;;
20026;SDS011;10174;42.688;23.344;2023-03-11T05:01:58;1.10;;;0.60;;
20026;SDS011;10174;42.688;23.344;2023-03-11T05:04:23;0.90;;;0.60;;
20026;SDS011;10174;42.688;23.344;2023-03-11T05:06:48;0.70;;;0.60;;
20026;SDS011;10174;42.688;23.344;2023-03-11T05:09:17;1.23;;;0.80;;
20026;SDS011;10174;42.688;23.344;2023-03-11T05:11:42;2.92;;;0.40;;
20026;SDS011;10174;42.688;23.344;2023-03-11T05:14:08;2.20;;;0.77;;
20026;SDS011;10174;42.688;23.344;2023-03-11T05:16:34;1.17;;;0.50;;
20026;SDS011;10174;42.688;23.344;2023-03-11T05:18:59;1.00;;;0.40;;
20026;SDS011;10174;42.688;23.344;2023-03-11T05:21:25;1.10;;;0.60;;
20026;SDS011;10174;42.688;23.344;2023-03-11T05:23:50;0.90;;;0.60;;
20026;SDS011;10174;42.688;23.344;2023-03-11T05:26:16;1.52;;;0.45;;
20026;SDS011;10174;42.688;23.344;2023-03-11T05:28:41;1.83;;;0.60;;
20026;SDS011;10174;42.688;23.344;2023-03-11T05:31:10;2.05;;;0.90;;
20026;SDS011;10174;42.688;23.344;2023-03-11T05:33:35;2.65;;;0.60;;
20026;SDS011;10174;42.688;23.344;2023-03-11T05:36:05;1.20;;;0.80;;
20026;SDS011;10174;42.688;23.344;2023-03-11T05:38:32;1.17;;;0.60;;
20026;SDS011;10174;42.688;23.344;2023-03-11T05:40:57;1.05;;;0.80;;
20026;SDS011;10174;42.688;23.344;2023-03-11T05:43:23;1.65;;;0.60;;
20026;SDS011;10174;42.688;23.344;2023-03-11T05:45:48;0.80;;;0.70;;
20026;SDS011;10174;42.688;23.344;2023-03-11T05:48:14;1.42;;;0.70;;
20026;SDS011;10174;42.688;23.344;2023-03-11T05:50:39;1.33;;;0.70;;
20026;SDS011;10174;42.688;23.344;2023-03-11T05:53:04;0.93;;;0.70;;
20026;SDS011;10174;42.688;23.344;2023-03-11T05:55:30;1.13;;;0.70;;
20026;SDS011;10174;42.688;23.344;2023-03-11T05:57:55;1.60;;;0.88;;
20026;SDS011;10174;42.688;23.344;2023-03-11T06:00:21;1.38;;;0.80;;
20026;SDS011;10174;42.688;23.344;2023-03-11T06:02:46;4.13;;;0.82;;
20026;SDS011;10174;42.688;23.344;2023-03-11T06:05:12;1.33;;;0.60;;
20026;SDS011;10174;42.688;23.344;2023-03-11T06:07:37;2.58;;;0.90;;
20026;SDS011;10174;42.688;23.344;2023-03-11T06:10:03;2.40;;;0.95;;
20026;SDS011;10174;42.688;23.344;2023-03-11T06:12:29;2.53;;;1.05;;
20026;SDS011;10174;42.688;23.344;2023-03-11T06:14:54;3.75;;;0.80;;
20026;SDS011;10174;42.688;23.344;2023-03-11T06:17:20;1.38;;;0.80;;
20026;SDS011;10174;42.688;23.344;2023-03-11T06:19:45;2.65;;;1.70;;
20026;SDS011;10174;42.688;23.344;2023-03-11T06:22:10;1.85;;;1.20;;
20026;SDS011;10174;42.688;23.344;2023-03-11T06:24:36;1.30;;;0.90;;
20026;SDS011;10174;42.688;23.344;2023-03-11T06:27:01;1.83;;;0.85;;
20026;SDS011;10174;42.688;23.344;2023-03-11T06:29:27;1.58;;;1.00;;
20026;SDS011;10174;42.688;23.344;2023-03-11T06:31:53;4.10;;;1.15;;
20026;SDS011;10174;42.688;23.344;2023-03-11T06:34:18;1.95;;;1.00;;
20026;SDS011;10174;42.688;23.344;2023-03-11T06:36:44;1.40;;;0.98;;
20026;SDS011;10174;42.688;23.344;2023-03-11T06:39:12;2.85;;;1.10;;
20026;SDS011;10174;42.688;23.344;2023-03-11T06:41:39;2.45;;;1.20;;
20026;SDS011;10174;42.688;23.344;2023-03-11T06:44:05;4.07;;;1.73;;
20026;SDS011;10174;42.688;23.344;2023-03-11T06:46:30;5.43;;;1.60;;
20026;SDS011;10174;42.688;23.344;2023-03-11T06:48:56;5.25;;;2.00;;
20026;SDS011;10174;42.688;23.344;2023-03-11T06:51:21;3.13;;;1.83;;
20026;SDS011;10174;42.688;23.344;2023-03-11T06:53:48;4.40;;;2.00;;
20026;SDS011;10174;42.688;23.344;2023-03-11T06:56:15;13.73;;;2.55;;
20026;SDS011;10174;42.688;23.344;2023-03-11T06:58:41;3.85;;;1.77;;
20026;SDS011;10174;42.688;23.344;2023-03-11T07:01:13;5.28;;;1.98;;
20026;SDS011;10174;42.688;23.344;2023-03-11T07:03:41;5.80;;;1.85;;
20026;SDS011;10174;42.688;23.344;2023-03-11T07:06:14;3.30;;;1.55;;
20026;SDS011;10174;42.688;23.344;2023-03-11T07:08:42;2.25;;;1.30;;
20026;SDS011;10174;42.688;23.344;2023-03-11T07:13:33;2.63;;;1.30;;
20026;SDS011;10174;42.688;23.344;2023-03-11T07:15:59;3.67;;;1.75;;
20026;SDS011;10174;42.688;23.344;2023-03-11T07:18:26;30.70;;;2.72;;
20026;SDS011;10174;42.688;23.344;2023-03-11T07:20:52;7.60;;;2.47;;
20026;SDS011;10174;42.688;23.344;2023-03-11T07:23:17;4.95;;;2.50;;
20026;SDS011;10174;42.688;23.344;2023-03-11T07:25:46;6.93;;;1.85;;
20026;SDS011;10174;42.688;23.344;2023-03-11T07:28:11;2.38;;;1.50;;
20026;SDS011;10174;42.688;23.344;2023-03-11T07:30:37;4.95;;;1.65;;
20026;SDS011;10174;42.688;23.344;2023-03-11T07:33:03;7.68;;;1.80;;
20026;SDS011;10174;42.688;23.344;2023-03-11T07:35:29;2.17;;;1.42;;
20026;SDS011;10174;42.688;23.344;2023-03-11T07:37:55;3.65;;;1.63;;
20026;SDS011;10174;42.688;23.344;2023-03-11T07:40:20;3.42;;;2.08;;
20026;SDS011;10174;42.688;23.344;2023-03-11T07:42:45;5.10;;;2.25;;
20026;SDS011;10174;42.688;23.344;2023-03-11T07:45:11;6.57;;;2.55;;
20026;SDS011;10174;42.688;23.344;2023-03-11T07:47:36;6.20;;;2.63;;
20026;SDS011;10174;42.688;23.344;2023-03-11T07:50:01;3.40;;;1.70;;
20026;SDS011;10174;42.688;23.344;2023-03-11T07:52:30;2.90;;;1.75;;
20026;SDS011;10174;42.688;23.344;2023-03-11T07:54:56;4.32;;;2.20;;
20026;SDS011;10174;42.688;23.344;2023-03-11T07:57:22;5.43;;;2.17;;
20026;SDS011;10174;42.688;23.344;2023-03-11T07:59:47;9.63;;;2.67;;
20026;SDS011;10174;42.688;23.344;2023-03-11T08:02:13;5.07;;;2.20;;
20026;SDS011;10174;42.688;23.344;2023-03-11T08:04:38;4.47;;;2.40;;
20026;SDS011;10174;42.688;23.344;2023-03-11T08:07:04;3.80;;;1.65;;
20026;SDS011;10174;42.688;23.344;2023-03-11T08:09:29;5.00;;;2.03;;
20026;SDS011;10174;42.688;23.344;2023-03-11T08:11:54;3.78;;;1.92;;
20026;SDS011;10174;42.688;23.344;2023-03-11T08:14:20;2.70;;;1.42;;
20026;SDS011;10174;42.688;23.344;2023-03-11T08:16:45;3.97;;;1.60;;
20026;SDS011;10174;42.688;23.344;2023-03-11T08:19:11;2.95;;;1.40;;
20026;SDS011;10174;42.688;23.344;2023-03-11T08:21:37;4.50;;;1.85;;
20026;SDS011;10174;42.688;23.344;2023-03-11T08:24:03;8.02;;;1.90;;
20026;SDS011;10174;42.688;23.344;2023-03-11T08:26:29;4.35;;;1.58;;
20026;SDS011;10174;42.688;23.344;2023-03-11T08:28:55;3.67;;;1.33;;
20026;SDS011;10174;42.688;23.344;2023-03-11T08:31:22;6.75;;;1.40;;
20026;SDS011;10174;42.688;23.344;2023-03-11T08:33:50;3.80;;;1.20;;
20026;SDS011;10174;42.688;23.344;2023-03-11T08:36:17;6.43;;;1.70;;
20026;SDS011;10174;42.688;23.344;2023-03-11T08:38:43;3.45;;;1.88;;
20026;SDS011;10174;42.688;23.344;2023-03-11T08:41:09;3.22;;;1.67;;
20026;SDS011;10174;42.688;23.344;2023-03-11T08:43:34;3.85;;;1.80;;
20026;SDS011;10174;42.688;23.344;2023-03-11T08:46:00;7.53;;;1.73;;
20026;SDS011;10174;42.688;23.344;2023-03-11T08:48:26;7.85;;;1.58;;
20026;SDS011;10174;42.688;23.344;2023-03-11T08:50:52;3.00;;;1.50;;
20026;SDS011;10174;42.688;23.344;2023-03-11T08:53:17;3.50;;;1.60;;
20026;SDS011;10174;42.688;23.344;2023-03-11T08:55:43;5.18;;;1.35;;
20026;SDS011;10174;42.688;23.344;2023-03-11T08:58:08;3.55;;;1.50;;
20026;SDS011;10174;42.688;23.344;2023-03-11T09:00:34;5.35;;;1.10;;
20026;SDS011;10174;42.688;23.344;2023-03-11T09:02:59;7.03;;;1.65;;
20026;SDS011;10174;42.688;23.344;2023-03-11T09:05:24;4.20;;;1.00;;
20026;SDS011;10174;42.688;23.344;2023-03-11T09:07:50;5.32;;;1.73;;
20026;SDS011;10174;42.688;23.344;2023-03-11T09:10:15;2.33;;;1.13;;
20026;SDS011;10174;42.688;23.344;2023-03-11T09:12:41;5.20;;;1.08;;
20026;SDS011;10174;42.688;23.344;2023-03-11T09:15:07;2.63;;;1.02;;
20026;SDS011;10174;42.688;23.344;2023-03-11T09:17:33;1.65;;;1.02;;
20026;SDS011;10174;42.688;23.344;2023-03-11T09:19:59;2.08;;;1.35;;
20026;SDS011;10174;42.688;23.344;2023-03-11T09:22:24;3.97;;;1.20;;
20026;SDS011;10174;42.688;23.344;2023-03-11T09:24:50;7.63;;;1.40;;
20026;SDS011;10174;42.688;23.344;2023-03-11T09:27:15;1.98;;;1.00;;
20026;SDS011;10174;42.688;23.344;2023-03-11T09:29:41;4.18;;;1.27;;
20026;SDS011;10174;42.688;23.344;2023-03-11T09:32:06;4.57;;;1.40;;
20026;SDS011;10174;42.688;23.344;2023-03-11T09:34:36;3.60;;;1.27;;
20026;SDS011;10174;42.688;23.344;2023-03-11T09:37:01;2.53;;;1.00;;
20026;SDS011;10174;42.688;23.344;2023-03-11T09:39:26;6.57;;;1.60;;
20026;SDS011;10174;42.688;23.344;2023-03-11T09:41:53;3.17;;;1.05;;
20026;SDS011;10174;42.688;23.344;2023-03-11T09:44:22;3.45;;;1.20;;
20026;SDS011;10174;42.688;23.344;2023-03-11T09:58:03;4.10;;;1.10;;
20026;SDS011;10174;42.688;23.344;2023-03-11T10:00:34;5.38;;;1.52;;
20026;SDS011;10174;42.688;23.344;2023-03-11T10:03:00;2.60;;;1.33;;
20026;SDS011;10174;42.688;23.344;2023-03-11T10:05:27;2.60;;;1.30;;
20026;SDS011;10174;42.688;23.344;2023-03-11T10:10:29;3.90;;;1.10;;
20026;SDS011;10174;42.688;23.344;2023-03-11T10:13:07;3.78;;;1.35;;
20026;SDS011;10174;42.688;23.344;2023-03-11T10:26:04;3.97;;;1.10;;
20026;SDS011;10174;42.688;23.344;2023-03-11T10:28:39;2.38;;;1.30;;
20026;SDS011;10174;42.688;23.344;2023-03-11T10:31:16;2.25;;;1.20;;
20026;SDS011;10174;42.688;23.344;2023-03-11T10:33:53;3.67;;;1.48;;
20026;SDS011;10174;42.688;23.344;2023-03-11T10:36:28;5.68;;;1.40;;
20026;SDS011;10174;42.688;23.344;2023-03-11T10:39:14;3.65;;;1.33;;
20026;SDS011;10174;42.688;23.344;2023-03-11T10:41:43;3.05;;;1.35;;
20026;SDS011;10174;42.688;23.344;2023-03-11T10:44:22;2.88;;;1.00;;
20026;SDS011;10174;42.688;23.344;2023-03-11T10:46:54;3.58;;;1.27;;
20026;SDS011;10174;42.688;23.344;2023-03-11T10:49:20;5.10;;;1.70;;
20026;SDS011;10174;42.688;23.344;2023-03-11T10:51:46;2.85;;;1.50;;
20026;SDS011;10174;42.688;23.344;2023-03-11T10:54:51;6.25;;;2.42;;
20026;SDS011;10174;42.688;23.344;2023-03-11T10:59:54;3.20;;;1.77;;
20026;SDS011;10174;42.688;23.344;2023-03-11T11:02:29;4.00;;;1.67;;
20026;SDS011;10174;42.688;23.344;2023-03-11T11:05:04;3.35;;;1.70;;
20026;SDS011;10174;42.688;23.344;2023-03-11T11:07:49;5.78;;;2.00;;
20026;SDS011;10174;42.688;23.344;2023-03-11T11:10:24;5.03;;;1.70;;
20026;SDS011;10174;42.688;23.344;2023-03-11T11:15:31;7.63;;;1.70;;
20026;SDS011;10174;42.688;23.344;2023-03-11T11:18:05;4.13;;;1.50;;
20026;SDS011;10174;42.688;23.344;2023-03-11T11:20:40;3.92;;;1.75;;
20026;SDS011;10174;42.688;23.344;2023-03-11T11:26:13;11.40;;;2.00;;
20026;SDS011;10174;42.688;23.344;2023-03-11T11:28:41;6.88;;;1.80;;
20026;SDS011;10174;42.688;23.344;2023-03-11T11:31:18;5.57;;;2.00;;
20026;SDS011;10174;42.688;23.344;2023-03-11T11:33:48;8.48;;;1.95;;
20026;SDS011;10174;42.688;23.344;2023-03-11T11:36:19;14.50;;;2.08;;
20026;SDS011;10174;42.688;23.344;2023-03-11T11:38:48;6.15;;;1.48;;
20026;SDS011;10174;42.688;23.344;2023-03-11T11:41:17;6.25;;;1.48;;
20026;SDS011;10174;42.688;23.344;2023-03-11T11:43:52;3.95;;;1.40;;
20026;SDS011;10174;42.688;23.344;2023-03-11T11:46:24;6.68;;;1.23;;
20026;SDS011;10174;42.688;23.344;2023-03-11T11:51:21;5.03;;;1.50;;
20026;SDS011;10174;42.688;23.344;2023-03-11T11:53:57;8.10;;;1.55;;
20026;SDS011;10174;42.688;23.344;2023-03-11T11:56:39;4.80;;;1.60;;
20026;SDS011;10174;42.688;23.344;2023-03-11T11:59:16;4.35;;;1.52;;
20026;SDS011;10174;42.688;23.344;2023-03-11T12:04:47;6.60;;;1.48;;
20026;SDS011;10174;42.688;23.344;2023-03-11T12:07:17;7.60;;;1.70;;
20026;SDS011;10174;42.688;23.344;2023-03-11T12:17:46;4.47;;;1.50;;
20026;SDS011;10174;42.688;23.344;2023-03-11T12:20:25;5.93;;;1.52;;
20026;SDS011;10174;42.688;23.344;2023-03-11T12:31:12;3.65;;;1.42;;
20026;SDS011;10174;42.688;23.344;2023-03-11T12:33:41;5.18;;;1.63;;
20026;SDS011;10174;42.688;23.344;2023-03-11T12:36:20;8.35;;;1.10;;
20026;SDS011;10174;42.688;23.344;2023-03-11T12:38:48;4.22;;;1.20;;
20026;SDS011;10174;42.688;23.344;2023-03-11T12:46:05;4.20;;;1.10;;
20026;SDS011;10174;42.688;23.344;2023-03-11T12:48:42;3.58;;;1.15;;
20026;SDS011;10174;42.688;23.344;2023-03-11T12:53:52;6.05;;;1.27;;
20026;SDS011;10174;42.688;23.344;2023-03-11T13:01:57;6.65;;;1.48;;
20026;SDS011;10174;42.688;23.344;2023-03-11T13:04:39;4.53;;;1.40;;
20026;SDS011;10174;42.688;23.344;2023-03-11T13:18:36;4.20;;;1.70;;
20026;SDS011;10174;42.688;23.344;2023-03-11T13:21:02;6.03;;;2.08;;
20026;SDS011;10174;42.688;23.344;2023-03-11T13:26:05;4.07;;;2.03;;
20026;SDS011;10174;42.688;23.344;2023-03-11T13:28:51;6.72;;;1.58;;
20026;SDS011;10174;42.688;23.344;2023-03-11T13:34:45;9.02;;;1.90;;
20026;SDS011;10174;42.688;23.344;2023-03-11T13:44:52;5.15;;;1.73;;
20026;SDS011;10174;42.688;23.344;2023-03-11T13:47:18;4.13;;;1.67;;
20026;SDS011;10174;42.688;23.344;2023-03-11T13:52:34;9.00;;;2.55;;
20026;SDS011;10174;42.688;23.344;2023-03-11T13:55:07;6.40;;;2.15;;
20026;SDS011;10174;42.688;23.344;2023-03-11T13:57:53;3.17;;;1.48;;
20026;SDS011;10174;42.688;23.344;2023-03-11T14:00:24;6.57;;;1.80;;
20026;SDS011;10174;42.688;23.344;2023-03-11T14:03:03;5.18;;;1.90;;
20026;SDS011;10174;42.688;23.344;2023-03-11T14:05:38;6.65;;;2.13;;
20026;SDS011;10174;42.688;23.344;2023-03-11T14:08:32;8.95;;;2.03;;
20026;SDS011;10174;42.688;23.344;2023-03-11T14:11:00;5.93;;;2.22;;
20026;SDS011;10174;42.688;23.344;2023-03-11T14:13:29;8.85;;;2.30;;
20026;SDS011;10174;42.688;23.344;2023-03-11T14:16:03;11.38;;;2.85;;
20026;SDS011;10174;42.688;23.344;2023-03-11T14:18:33;16.92;;;3.08;;
20026;SDS011;10174;42.688;23.344;2023-03-11T14:20:59;7.88;;;3.15;;
20026;SDS011;10174;42.688;23.344;2023-03-11T14:23:31;12.90;;;4.57;;
20026;SDS011;10174;42.688;23.344;2023-03-11T14:25:59;5.82;;;2.42;;
20026;SDS011;10174;42.688;23.344;2023-03-11T14:28:30;5.78;;;2.20;;
20026;SDS011;10174;42.688;23.344;2023-03-11T14:30:58;8.45;;;2.40;;
20026;SDS011;10174;42.688;23.344;2023-03-11T14:33:25;8.35;;;2.83;;
20026;SDS011;10174;42.688;23.344;2023-03-11T14:35:54;3.83;;;2.15;;
20026;SDS011;10174;42.688;23.344;2023-03-11T14:38:22;4.85;;;2.38;;
20026;SDS011;10174;42.688;23.344;2023-03-11T14:40:51;6.20;;;2.10;;
20026;SDS011;10174;42.688;23.344;2023-03-11T14:43:18;3.08;;;1.90;;
20026;SDS011;10174;42.688;23.344;2023-03-11T14:45:45;4.35;;;2.20;;
20026;SDS011;10174;42.688;23.344;2023-03-11T14:48:17;5.57;;;2.78;;
20026;SDS011;10174;42.688;23.344;2023-03-11T14:50:49;6.88;;;3.08;;
20026;SDS011;10174;42.688;23.344;2023-03-11T14:59:05;5.53;;;2.72;;
20026;SDS011;10174;42.688;23.344;2023-03-11T15:01:20;7.15;;;2.97;;
20026;SDS011;10174;42.688;23.344;2023-03-11T15:03:57;7.65;;;2.55;;
20026;SDS011;10174;42.688;23.344;2023-03-11T15:06:25;5.93;;;2.28;;
20026;SDS011;10174;42.688;23.344;2023-03-11T15:09:00;8.30;;;2.30;;
20026;SDS011;10174;42.688;23.344;2023-03-11T15:11:30;7.45;;;2.83;;
20026;SDS011;10174;42.688;23.344;2023-03-11T15:14:18;10.68;;;3.13;;
20026;SDS011;10174;42.688;23.344;2023-03-11T15:16:47;6.82;;;2.25;;
20026;SDS011;10174;42.688;23.344;2023-03-11T15:21:54;11.43;;;3.33;;
20026;SDS011;10174;42.688;23.344;2023-03-11T15:24:24;11.80;;;3.92;;
20026;SDS011;10174;42.688;23.344;2023-03-11T15:27:19;10.35;;;4.43;;
20026;SDS011;10174;42.688;23.344;2023-03-11T15:29:49;14.98;;;4.70;;
20026;SDS011;10174;42.688;23.344;2023-03-11T15:35:16;13.15;;;5.10;;
20026;SDS011;10174;42.688;23.344;2023-03-11T15:37:42;16.92;;;6.55;;
20026;SDS011;10174;42.688;23.344;2023-03-11T15:40:17;16.63;;;6.82;;
20026;SDS011;10174;42.688;23.344;2023-03-11T15:42:48;15.70;;;6.28;;
20026;SDS011;10174;42.688;23.344;2023-03-11T15:45:33;15.60;;;6.80;;
20026;SDS011;10174;42.688;23.344;2023-03-11T15:48:00;24.77;;;7.50;;
20026;SDS011;10174;42.688;23.344;2023-03-11T15:50:26;19.27;;;5.97;;
20026;SDS011;10174;42.688;23.344;2023-03-11T15:52:54;13.75;;;6.10;;
20026;SDS011;10174;42.688;23.344;2023-03-11T15:55:21;14.05;;;6.10;;
20026;SDS011;10174;42.688;23.344;2023-03-11T15:57:48;10.90;;;6.20;;
20026;SDS011;10174;42.688;23.344;2023-03-11T16:00:17;12.48;;;6.78;;
20026;SDS011;10174;42.688;23.344;2023-03-11T16:02:46;13.73;;;8.05;;
20026;SDS011;10174;42.688;23.344;2023-03-11T16:05:13;15.85;;;9.90;;
20026;SDS011;10174;42.688;23.344;2023-03-11T16:07:41;12.75;;;8.85;;
20026;SDS011;10174;42.688;23.344;2023-03-11T16:10:07;11.05;;;8.45;;
20026;SDS011;10174;42.688;23.344;2023-03-11T16:12:33;13.35;;;8.48;;
20026;SDS011;10174;42.688;23.344;2023-03-11T16:14:59;15.50;;;9.13;;
20026;SDS011;10174;42.688;23.344;2023-03-11T16:17:25;10.13;;;7.05;;
20026;SDS011;10174;42.688;23.344;2023-03-11T16:19:50;13.25;;;8.32;;
20026;SDS011;10174;42.688;23.344;2023-03-11T16:22:19;11.98;;;8.45;;
20026;SDS011;10174;42.688;23.344;2023-03-11T16:24:49;9.73;;;7.65;;
20026;SDS011;10174;42.688;23.344;2023-03-11T16:27:17;8.98;;;6.95;;
20026;SDS011;10174;42.688;23.344;2023-03-11T16:29:43;12.63;;;8.70;;
20026;SDS011;10174;42.688;23.344;2023-03-11T16:32:09;14.43;;;8.45;;
20026;SDS011;10174;42.688;23.344;2023-03-11T16:34:35;13.68;;;7.70;;
20026;SDS011;10174;42.688;23.344;2023-03-11T16:37:03;10.23;;;5.85;;